Time,TemperatureF,DewpointF,PressureIn,WindDirection,WindDirectionDegrees,WindSpeedMPH,WindSpeedGustMPH,Humidity,HourlyPrecipIn,Conditions,Clouds,dailyrainin,SoftwareType,DateUTC
2013-03-11 07:00:00,34.4,31.2,29.90,SW,225,2.9,2.9,88,0.00,,,0.00,WUHU216HW,2013-03-11 11:00:00,
2013-03-11 07:01:00,34.4,31.2,29.90,SW,225,2.7,3.4,88,0.00,,,0.00,WUHU216HW,2013-03-11 11:01:00,
2013-03-11 07:06:00,34.6,31.3,29.89,SSW,203,2.2,3.4,88,0.00,,,0.00,WUHU216HW,2013-03-11 11:06:00,
2013-03-11 07:12:00,34.6,31.3,29.90,SW,225,3.6,3.6,88,0.00,,,0.00,WUHU216HW,2013-03-11 11:12:00,
2013-03-11 07:17:00,34.6,31.3,29.90,SW,225,3.1,3.6,88,0.00,,,0.00,WUHU216HW,2013-03-11 11:17:00,
2013-03-11 07:22:00,34.7,31.5,29.89,SSW,199,1.1,3.4,88,0.00,,,0.00,WUHU216HW,2013-03-11 11:22:00,
2013-03-11 07:27:00,34.7,31.5,29.89,SSW,201,1.2,4.0,88,0.00,,,0.00,WUHU216HW,2013-03-11 11:27:00,
2013-03-11 07:32:00,34.7,31.5,29.89,South,180,1.8,4.0,88,0.00,,,0.00,WUHU216HW,2013-03-11 11:32:00,
2013-03-11 07:37:00,34.7,31.5,29.89,SSW,197,1.3,2.0,88,0.00,,,0.00,WUHU216HW,2013-03-11 11:37:00,
2013-03-11 07:42:00,34.9,31.7,29.89,SW,223,1.5,2.5,88,0.00,,,0.00,WUHU216HW,2013-03-11 11:42:00,
2013-03-11 07:47:00,34.9,31.7,29.89,SSW,203,2.0,3.1,88,0.00,,,0.00,WUHU216HW,2013-03-11 11:47:00,
2013-03-11 07:52:00,34.9,31.7,29.89,SSW,203,2.5,3.1,88,0.00,,,0.00,WUHU216HW,2013-03-11 11:52:00,
2013-03-11 07:57:00,35.1,32.1,29.89,SSW,203,2.5,3.4,89,0.00,,,0.00,WUHU216HW,2013-03-11 11:57:00,
2013-03-11 08:02:00,35.3,32.3,29.89,SW,225,3.1,3.4,89,0.00,,,0.00,WUHU216HW,2013-03-11 12:02:00,
2013-03-11 08:07:00,35.5,32.5,29.89,SSW,207,2.3,3.4,89,0.00,,,0.00,WUHU216HW,2013-03-11 12:07:00,
2013-03-11 08:12:00,35.6,32.7,29.90,SW,214,3.5,4.7,89,0.00,,,0.00,WUHU216HW,2013-03-11 12:12:00,
2013-03-11 08:17:00,35.6,32.7,29.90,SSW,208,2.8,4.7,89,0.00,,,0.00,WUHU216HW,2013-03-11 12:17:00,
2013-03-11 08:22:00,35.8,32.9,29.90,SSW,213,3.2,4.0,89,0.00,,,0.00,WUHU216HW,2013-03-11 12:22:00,
2013-03-11 08:27:00,36.0,33.0,29.90,SSW,209,2.8,4.0,89,0.00,,,0.00,WUHU216HW,2013-03-11 12:27:00,
2013-03-11 08:32:00,36.0,33.0,29.90,SSW,201,3.1,3.8,89,0.00,,,0.00,WUHU216HW,2013-03-11 12:32:00,
2013-03-11 08:37:00,36.4,33.4,29.90,SW,225,1.8,3.6,89,0.00,,,0.00,WUHU216HW,2013-03-11 12:37:00,
2013-03-11 08:42:00,36.4,33.4,29.90,SW,216,3.1,4.0,89,0.00,,,0.00,WUHU216HW,2013-03-11 12:42:00,
2013-03-11 08:47:00,36.7,33.8,29.90,SSW,201,3.0,4.0,89,0.00,,,0.00,WUHU216HW,2013-03-11 12:47:00,
2013-03-11 08:52:00,37.1,34.1,29.90,SSW,203,4.7,4.7,89,0.00,,,0.00,WUHU216HW,2013-03-11 12:52:00,
2013-03-11 08:57:00,37.3,34.3,29.90,SSW,198,3.4,4.7,89,0.00,,,0.00,WUHU216HW,2013-03-11 12:57:00,
2013-03-11 09:02:00,37.4,34.2,29.90,SSW,203,5.1,5.4,88,0.00,,,0.00,WUHU216HW,2013-03-11 13:02:00,
2013-03-11 09:07:00,37.4,34.5,29.90,SW,224,2.4,5.4,89,0.00,,,0.00,WUHU216HW,2013-03-11 13:07:00,
2013-03-11 09:12:00,37.6,34.7,29.91,SSW,207,2.3,4.7,89,0.00,,,0.00,WUHU216HW,2013-03-11 13:12:00,
2013-03-11 09:17:00,37.8,34.8,29.91,SW,215,2.6,4.7,89,0.00,,,0.00,WUHU216HW,2013-03-11 13:17:00,
2013-03-11 09:22:00,37.8,34.8,29.90,SSW,212,2.3,4.5,89,0.00,,,0.00,WUHU216HW,2013-03-11 13:22:00,
2013-03-11 09:27:00,38.0,35.0,29.91,SSW,203,2.7,4.5,89,0.00,,,0.00,WUHU216HW,2013-03-11 13:27:00,
2013-03-11 09:32:00,38.2,34.9,29.91,SW,216,3.5,4.0,88,0.00,,,0.00,WUHU216HW,2013-03-11 13:32:00,
2013-03-11 09:37:00,38.5,35.3,29.90,SW,221,2.3,4.0,88,0.00,,,0.00,WUHU216HW,2013-03-11 13:37:00,
2013-03-11 09:42:00,38.9,35.7,29.90,SW,225,2.5,4.0,88,0.00,,,0.00,WUHU216HW,2013-03-11 13:42:00,
2013-03-11 09:47:00,38.9,35.7,29.91,SW,225,4.9,4.9,88,0.00,,,0.00,WUHU216HW,2013-03-11 13:47:00,
2013-03-11 09:52:00,39.2,35.6,29.91,SW,221,2.3,4.9,87,0.00,,,0.00,WUHU216HW,2013-03-11 13:52:00,
2013-03-11 09:57:00,39.4,35.8,29.91,SSW,203,2.5,3.1,87,0.00,,,0.00,WUHU216HW,2013-03-11 13:57:00,
2013-03-11 10:02:00,39.6,36.0,29.91,SSW,203,2.9,4.0,87,0.00,,,0.00,WUHU216HW,2013-03-11 14:02:00,
2013-03-11 10:07:00,40.0,36.4,29.91,SSW,203,3.4,4.0,87,0.00,,,0.00,WUHU216HW,2013-03-11 14:07:00,
2013-03-11 10:12:00,40.5,36.9,29.91,SSW,203,4.5,4.5,87,0.00,,,0.00,WUHU216HW,2013-03-11 14:12:00,
2013-03-11 10:17:00,40.9,37.3,29.91,SSW,203,4.3,4.7,87,0.00,,,0.00,WUHU216HW,2013-03-11 14:17:00,
2013-03-11 10:22:00,41.4,37.4,29.91,SW,225,3.4,4.9,86,0.00,,,0.00,WUHU216HW,2013-03-11 14:22:00,
2013-03-11 10:27:00,41.8,37.8,29.91,SSW,203,1.9,5.1,86,0.00,,,0.00,WUHU216HW,2013-03-11 14:27:00,
2013-03-11 10:32:00,42.1,38.2,29.91,SSW,203,2.7,5.1,86,0.00,,,0.00,WUHU216HW,2013-03-11 14:32:00,
2013-03-11 10:37:00,42.8,38.6,29.91,SSW,203,4.5,5.4,85,0.00,,,0.00,WUHU216HW,2013-03-11 14:37:00,
2013-03-11 10:42:00,43.4,39.2,29.91,SSW,203,5.4,6.7,85,0.00,,,0.00,WUHU216HW,2013-03-11 14:42:00,
2013-03-11 10:47:00,43.6,39.3,29.91,SW,225,4.0,6.7,85,0.00,,,0.00,WUHU216HW,2013-03-11 14:47:00,
2013-03-11 10:52:00,43.6,39.1,29.91,SSW,203,4.2,6.3,84,0.00,,,0.00,WUHU216HW,2013-03-11 14:52:00,
2013-03-11 10:57:00,43.9,39.1,29.91,SSW,203,5.1,5.1,83,0.00,,,0.00,WUHU216HW,2013-03-11 14:57:00,
2013-03-11 11:02:00,43.9,39.1,29.90,SSW,203,5.8,5.8,83,0.00,,,0.00,WUHU216HW,2013-03-11 15:02:00,
2013-03-11 11:07:00,44.3,39.4,29.91,SW,217,7.0,7.8,83,0.00,,,0.00,WUHU216HW,2013-03-11 15:07:00,
2013-03-11 11:12:00,44.6,39.5,29.91,SSW,203,5.4,8.3,82,0.00,,,0.00,WUHU216HW,2013-03-11 15:12:00,
2013-03-11 11:17:00,45.0,39.5,29.90,SSW,210,6.7,8.3,81,0.00,,,0.00,WUHU216HW,2013-03-11 15:17:00,
2013-03-11 11:22:00,45.0,39.5,29.91,SW,219,5.0,8.1,81,0.00,,,0.00,WUHU216HW,2013-03-11 15:22:00,
2013-03-11 11:27:00,45.7,40.2,29.91,SW,225,4.0,5.6,81,0.00,,,0.00,WUHU216HW,2013-03-11 15:27:00,
2013-03-11 11:32:00,46.3,40.5,29.91,SW,225,5.8,6.9,80,0.00,,,0.00,WUHU216HW,2013-03-11 15:32:00,
2013-03-11 11:37:00,46.3,40.1,29.90,SSW,211,6.4,7.2,79,0.00,,,0.00,WUHU216HW,2013-03-11 15:37:00,
2013-03-11 11:42:00,46.1,40.0,29.90,SSW,203,5.4,7.2,79,0.00,,,0.00,WUHU216HW,2013-03-11 15:42:00,
2013-03-11 11:47:00,46.3,40.1,29.90,ENE,68,2.5,5.6,79,0.00,,,0.00,WUHU216HW,2013-03-11 15:47:00,
2013-03-11 11:52:00,46.3,39.8,29.89,SW,218,2.3,5.1,78,0.00,,,0.00,WUHU216HW,2013-03-11 15:52:00,
2013-03-11 11:57:00,46.4,40.0,29.88,SSW,192,1.9,4.9,78,0.00,,,0.00,WUHU216HW,2013-03-11 15:57:00,
2013-03-11 12:02:00,46.8,40.3,29.88,SSW,203,2.7,4.9,78,0.00,,,0.00,WUHU216HW,2013-03-11 16:02:00,
2013-03-11 12:07:00,47.2,40.7,29.88,South,183,2.2,6.3,78,0.00,,,0.00,WUHU216HW,2013-03-11 16:07:00,
2013-03-11 12:12:00,47.2,40.7,29.88,SW,225,4.9,6.3,78,0.00,,,0.00,WUHU216HW,2013-03-11 16:12:00,
2013-03-11 12:17:00,47.5,41.0,29.88,SSW,198,4.4,6.0,78,0.00,,,0.00,WUHU216HW,2013-03-11 16:17:00,
2013-03-11 12:23:00,47.7,41.1,29.88,SW,215,4.7,6.0,78,0.00,,,0.00,WUHU216HW,2013-03-11 16:23:00,
2013-03-11 12:28:00,47.9,41.0,29.88,South,185,1.8,6.0,77,0.00,,,0.00,WUHU216HW,2013-03-11 16:28:00,
2013-03-11 12:32:00,47.9,41.0,29.88,SSW,201,3.1,5.8,77,0.00,,,0.00,WUHU216HW,2013-03-11 16:32:00,
2013-03-11 12:37:00,47.7,40.4,29.88,North,358,1.0,5.8,76,0.00,,,0.00,WUHU216HW,2013-03-11 16:37:00,
2013-03-11 12:42:00,47.7,40.8,29.88,South,189,1.9,4.5,77,0.00,,,0.00,WUHU216HW,2013-03-11 16:42:00,
2013-03-11 12:47:00,47.7,40.4,29.88,SW,225,3.6,3.8,76,0.00,,,0.00,WUHU216HW,2013-03-11 16:47:00,
2013-03-11 12:52:00,47.9,40.6,29.88,SSW,203,7.2,7.2,76,0.00,,,0.00,WUHU216HW,2013-03-11 16:52:00,
2013-03-11 12:57:00,48.4,41.1,29.88,SSW,213,4.2,7.6,76,0.00,,,0.00,WUHU216HW,2013-03-11 16:57:00,
2013-03-11 13:02:00,48.6,41.3,29.88,SSW,194,2.5,7.6,76,0.00,,,0.00,WUHU216HW,2013-03-11 17:02:00,
2013-03-11 13:07:00,48.6,41.0,29.87,SW,225,2.1,4.5,75,0.00,,,0.00,WUHU216HW,2013-03-11 17:07:00,
2013-03-11 13:13:00,48.8,41.1,29.87,SSW,203,4.1,5.4,75,0.00,,,0.00,WUHU216HW,2013-03-11 17:13:00,
2013-03-11 13:17:00,49.0,41.0,29.87,SSE,152,2.3,5.4,74,0.00,,,0.00,WUHU216HW,2013-03-11 17:17:00,
2013-03-11 13:23:00,49.0,41.0,29.87,SSW,203,4.0,4.7,74,0.00,,,0.00,WUHU216HW,2013-03-11 17:23:00,
2013-03-11 13:28:00,49.1,41.1,29.87,SW,218,3.3,5.4,74,0.00,,,0.00,WUHU216HW,2013-03-11 17:28:00,
2013-03-11 13:33:00,49.1,41.1,29.86,West,270,1.1,5.4,74,0.00,,,0.00,WUHU216HW,2013-03-11 17:33:00,
2013-03-11 13:38:00,49.0,41.0,29.86,SSW,197,2.1,4.7,74,0.00,,,0.00,WUHU216HW,2013-03-11 17:38:00,
2013-03-11 13:42:00,49.0,41.0,29.86,SSW,199,0.9,4.7,74,0.00,,,0.00,WUHU216HW,2013-03-11 17:42:00,
2013-03-11 13:48:00,49.0,40.6,29.86,SSW,203,4.0,4.7,73,0.00,,,0.00,WUHU216HW,2013-03-11 17:48:00,
2013-03-11 13:52:00,49.1,41.1,29.86,SW,225,4.0,5.8,74,0.00,,,0.00,WUHU216HW,2013-03-11 17:52:00,
2013-03-11 13:58:00,49.5,41.1,29.85,SSW,203,6.9,6.9,73,0.00,,,0.00,WUHU216HW,2013-03-11 17:58:00,
2013-03-11 14:02:00,49.9,41.5,29.85,SSW,203,1.4,6.9,73,0.00,,,0.00,WUHU216HW,2013-03-11 18:02:00,
2013-03-11 14:08:00,50.0,41.7,29.85,South,180,6.7,6.7,73,0.00,,,0.00,WUHU216HW,2013-03-11 18:08:00,
2013-03-11 14:13:00,50.2,41.6,29.85,SSW,203,5.6,6.7,72,0.00,,,0.00,WUHU216HW,2013-03-11 18:13:00,
2013-03-11 14:18:00,50.4,41.8,29.85,SSW,205,1.2,7.2,72,0.00,,,0.00,WUHU216HW,2013-03-11 18:18:00,
2013-03-11 14:23:00,50.4,41.8,29.85,ENE,76,1.7,7.2,72,0.00,,,0.00,WUHU216HW,2013-03-11 18:23:00,
2013-03-11 14:28:00,50.2,41.6,29.84,ENE,67,1.3,2.5,72,0.00,,,0.00,WUHU216HW,2013-03-11 18:28:00,
2013-03-11 14:33:00,50.2,41.2,29.84,South,171,1.2,5.4,71,0.00,,,0.00,WUHU216HW,2013-03-11 18:33:00,
2013-03-11 14:38:00,50.0,41.1,29.84,SSW,203,4.0,5.4,71,0.00,,,0.00,WUHU216HW,2013-03-11 18:38:00,
2013-03-11 14:43:00,49.9,40.9,29.85,SSE,158,1.8,4.0,71,0.00,,,0.00,WUHU216HW,2013-03-11 18:43:00,
2013-03-11 14:48:00,50.0,40.7,29.85,WSW,248,1.6,2.0,70,0.00,,,0.00,WUHU216HW,2013-03-11 18:48:00,
2013-03-11 14:53:00,50.0,41.1,29.85,ENE,68,1.3,2.9,71,0.00,,,0.00,WUHU216HW,2013-03-11 18:53:00,
2013-03-11 14:58:00,50.2,40.9,29.84,SW,225,3.4,4.7,70,0.00,,,0.00,WUHU216HW,2013-03-11 18:58:00,
2013-03-11 15:03:00,50.6,41.2,29.84,South,188,1.3,6.0,70,0.00,,,0.00,WUHU216HW,2013-03-11 19:03:00,
2013-03-11 15:08:00,50.6,41.2,29.84,SSW,210,2.6,6.0,70,0.00,,,0.00,WUHU216HW,2013-03-11 19:08:00,
2013-03-11 15:13:00,50.9,41.6,29.84,NNE,26,1.5,4.0,70,0.00,,,0.00,WUHU216HW,2013-03-11 19:13:00,
2013-03-11 15:18:00,51.1,41.8,29.84,East,92,1.1,2.2,70,0.00,,,0.00,WUHU216HW,2013-03-11 19:18:00,
2013-03-11 15:23:00,51.3,41.9,29.84,East,90,0.9,1.8,70,0.00,,,0.00,WUHU216HW,2013-03-11 19:23:00,
2013-03-11 15:28:00,51.1,41.3,29.83,East,92,1.7,2.5,69,0.00,,,0.00,WUHU216HW,2013-03-11 19:28:00,
2013-03-11 15:33:00,51.1,41.8,29.83,SW,225,2.9,2.9,70,0.00,,,0.00,WUHU216HW,2013-03-11 19:33:00,
2013-03-11 15:38:00,50.9,41.2,29.83,ESE,113,2.5,2.9,69,0.00,,,0.00,WUHU216HW,2013-03-11 19:38:00,
2013-03-11 15:43:00,50.8,41.1,29.83,SSW,203,3.4,3.4,69,0.00,,,0.00,WUHU216HW,2013-03-11 19:43:00,
2013-03-11 15:48:00,50.8,41.1,29.83,WSW,248,0.9,3.4,69,0.00,,,0.00,WUHU216HW,2013-03-11 19:48:00,
2013-03-11 15:53:00,50.4,40.7,29.83,South,179,1.5,3.6,69,0.00,,,0.00,WUHU216HW,2013-03-11 19:53:00,
2013-03-11 15:58:00,50.6,40.9,29.83,NNW,338,2.7,3.6,69,0.00,,,0.00,WUHU216HW,2013-03-11 19:58:00,
2013-03-11 16:03:00,50.4,40.7,29.83,ENE,66,1.1,2.7,69,0.00,,,0.00,WUHU216HW,2013-03-11 20:03:00,
2013-03-11 16:08:00,50.4,41.0,29.82,SE,131,1.3,2.7,70,0.00,,,0.00,WUHU216HW,2013-03-11 20:08:00,
2013-03-11 16:13:00,50.4,41.0,29.83,SSW,195,1.7,2.9,70,0.00,,,0.00,WUHU216HW,2013-03-11 20:13:00,
2013-03-11 16:18:00,50.2,40.9,29.83,WNW,293,1.6,2.9,70,0.00,,,0.00,WUHU216HW,2013-03-11 20:18:00,
2013-03-11 16:23:00,50.4,41.0,29.83,SSW,203,2.2,2.7,70,0.00,,,0.00,WUHU216HW,2013-03-11 20:23:00,
2013-03-11 16:28:00,50.4,41.0,29.83,SSW,211,3.0,5.6,70,0.00,,,0.00,WUHU216HW,2013-03-11 20:28:00,
2013-03-11 16:33:00,50.0,40.3,29.82,East,80,1.4,6.3,69,0.00,,,0.00,WUHU216HW,2013-03-11 20:33:00,
2013-03-11 16:38:00,49.9,40.2,29.81,ESE,113,2.5,6.3,69,0.00,,,0.00,WUHU216HW,2013-03-11 20:38:00,
2013-03-11 16:43:00,49.7,40.3,29.82,WSW,257,1.3,3.6,70,0.00,,,0.00,WUHU216HW,2013-03-11 20:43:00,
2013-03-11 16:48:00,49.5,40.1,29.82,East,90,2.2,3.4,70,0.00,,,0.00,WUHU216HW,2013-03-11 20:48:00,
2013-03-11 16:53:00,49.3,40.3,29.82,NW,316,1.4,3.4,71,0.00,,,0.00,WUHU216HW,2013-03-11 20:53:00,
2013-03-11 16:58:00,49.3,40.3,29.82,East,90,2.5,2.7,71,0.00,,,0.00,WUHU216HW,2013-03-11 20:58:00,
2013-03-11 17:03:00,49.0,40.0,29.81,NE,56,1.2,2.5,71,0.00,,,0.00,WUHU216HW,2013-03-11 21:03:00,
2013-03-11 17:08:00,49.0,40.3,29.81,SE,135,2.7,2.7,72,0.00,,,0.00,WUHU216HW,2013-03-11 21:08:00,
2013-03-11 17:13:00,48.6,40.0,29.81,ENE,68,1.1,2.7,72,0.00,,,0.00,WUHU216HW,2013-03-11 21:13:00,
2013-03-11 17:18:00,48.4,39.8,29.81,SW,235,1.8,2.7,72,0.00,,,0.00,WUHU216HW,2013-03-11 21:18:00,
2013-03-11 17:23:00,48.2,39.6,29.81,NE,45,1.1,2.7,72,0.00,,,0.00,WUHU216HW,2013-03-11 21:23:00,
2013-03-11 17:28:00,47.9,39.2,29.81,East,87,1.5,2.0,72,0.00,,,0.00,WUHU216HW,2013-03-11 21:28:00,
2013-03-11 17:33:00,47.7,39.1,29.81,SE,135,2.0,2.5,72,0.00,,,0.00,WUHU216HW,2013-03-11 21:33:00,
2013-03-11 17:38:00,47.2,39.0,29.81,WSW,248,2.5,2.9,73,0.00,,,0.00,WUHU216HW,2013-03-11 21:38:00,
2013-03-11 17:43:00,47.0,38.8,29.81,NNE,13,0.9,2.9,73,0.00,,,0.00,WUHU216HW,2013-03-11 21:43:00,
2013-03-11 17:48:00,46.8,39.0,29.81,ENE,70,1.6,2.9,74,0.00,,,0.00,WUHU216HW,2013-03-11 21:48:00,
2013-03-11 17:53:00,46.4,38.6,29.80,NNE,23,2.0,2.9,74,0.00,,,0.00,WUHU216HW,2013-03-11 21:53:00,
2013-03-11 17:58:00,46.4,39.0,29.81,NNE,16,0.9,2.9,75,0.00,,,0.00,WUHU216HW,2013-03-11 21:58:00,
2013-03-11 18:03:00,46.1,38.6,29.81,SW,225,1.3,2.7,75,0.00,,,0.00,WUHU216HW,2013-03-11 22:03:00,
2013-03-11 18:08:00,46.1,38.6,29.81,North,3,0.7,3.1,75,0.00,,,0.00,WUHU216HW,2013-03-11 22:08:00,
2013-03-11 18:13:00,45.7,38.3,29.81,SE,127,1.0,3.1,75,0.00,,,0.00,WUHU216HW,2013-03-11 22:13:00,
2013-03-11 18:18:00,45.5,38.4,29.81,ENE,68,1.8,1.8,76,0.00,,,0.00,WUHU216HW,2013-03-11 22:18:00,
2013-03-11 18:23:00,45.4,38.3,29.81,SSW,203,2.5,3.4,76,0.00,,,0.00,WUHU216HW,2013-03-11 22:23:00,
2013-03-11 18:28:00,45.4,38.3,29.81,SW,225,1.3,3.4,76,0.00,,,0.00,WUHU216HW,2013-03-11 22:28:00,
2013-03-11 18:33:00,45.2,38.4,29.82,North,0,1.6,2.0,77,0.00,,,0.00,WUHU216HW,2013-03-11 22:33:00,
2013-03-11 18:38:00,45.0,38.3,29.81,SW,225,1.3,1.8,77,0.00,,,0.00,WUHU216HW,2013-03-11 22:38:00,
2013-03-11 18:43:00,44.8,38.1,29.81,SW,225,0.9,2.7,77,0.00,,,0.00,WUHU216HW,2013-03-11 22:43:00,
2013-03-11 18:48:00,44.8,38.3,29.81,East,87,0.8,2.7,78,0.00,,,0.00,WUHU216HW,2013-03-11 22:48:00,
2013-03-11 18:53:00,44.8,38.3,29.81,SSW,201,1.0,2.5,78,0.00,,,0.00,WUHU216HW,2013-03-11 22:53:00,
2013-03-11 18:58:00,44.6,38.2,29.81,ESE,105,1.0,2.5,78,0.00,,,0.00,WUHU216HW,2013-03-11 22:58:00,
2013-03-11 19:03:00,44.6,38.2,29.81,West,267,1.1,1.8,78,0.00,,,0.00,WUHU216HW,2013-03-11 23:03:00,
2013-03-11 19:08:00,44.5,38.3,29.81,SSW,193,1.1,2.0,79,0.00,,,0.00,WUHU216HW,2013-03-11 23:08:00,
2013-03-11 19:13:00,44.3,38.2,29.80,South,177,0.7,2.7,79,0.00,,,0.00,WUHU216HW,2013-03-11 23:13:00,
2013-03-11 19:18:00,44.3,38.2,29.80,South,173,0.6,2.7,79,0.00,,,0.00,WUHU216HW,2013-03-11 23:18:00,
2013-03-11 19:23:00,44.3,38.5,29.80,ENE,63,0.7,1.6,80,0.00,,,0.00,WUHU216HW,2013-03-11 23:23:00,
2013-03-11 19:28:00,44.1,38.3,29.80,WSW,248,1.1,1.8,80,0.00,,,0.00,WUHU216HW,2013-03-11 23:28:00,
2013-03-11 19:33:00,44.1,38.3,29.80,NW,320,0.8,1.8,80,0.00,,,0.00,WUHU216HW,2013-03-11 23:33:00,
2013-03-11 19:38:00,43.9,38.4,29.80,South,180,0.7,1.1,81,0.00,,,0.00,WUHU216HW,2013-03-11 23:38:00,
2013-03-11 19:43:00,43.9,38.4,29.80,SW,236,0.4,1.1,81,0.00,,,0.00,WUHU216HW,2013-03-11 23:43:00,
2013-03-11 19:48:00,43.7,38.3,29.80,West,273,0.6,1.1,81,0.00,,,0.00,WUHU216HW,2013-03-11 23:48:00,
2013-03-11 19:53:00,43.7,38.3,29.80,West,269,0.6,1.6,81,0.00,,,0.00,WUHU216HW,2013-03-11 23:53:00,
2013-03-11 19:58:00,43.7,38.3,29.80,SSE,160,0.3,1.8,81,0.00,,,0.00,WUHU216HW,2013-03-11 23:58:00,
2013-03-11 20:03:00,43.7,38.6,29.80,SW,225,1.1,1.8,82,0.00,,,0.00,WUHU216HW,2013-03-12 00:03:00,
2013-03-11 20:08:00,43.6,38.4,29.80,ESE,103,0.6,2.2,82,0.00,,,0.00,WUHU216HW,2013-03-12 00:08:00,
2013-03-11 20:13:00,43.6,38.4,29.81,ENE,76,0.6,2.2,82,0.00,,,0.00,WUHU216HW,2013-03-12 00:13:00,
2013-03-11 20:18:00,43.4,38.3,29.81,North,0,0.4,1.1,82,0.00,,,0.00,WUHU216HW,2013-03-12 00:18:00,
2013-03-11 20:23:00,43.4,38.5,29.80,SE,135,1.1,1.8,83,0.00,,,0.00,WUHU216HW,2013-03-12 00:23:00,
2013-03-11 20:28:00,43.4,38.5,29.80,West,270,0.4,1.8,83,0.00,,,0.00,WUHU216HW,2013-03-12 00:28:00,
2013-03-11 20:33:00,43.2,38.7,29.80,SW,223,0.8,1.3,84,0.00,,,0.00,WUHU216HW,2013-03-12 00:33:00,
2013-03-11 20:38:00,43.2,38.7,29.81,SW,223,0.5,1.3,84,0.00,,,0.00,WUHU216HW,2013-03-12 00:38:00,
2013-03-11 20:43:00,43.2,38.7,29.81,SSW,195,0.7,1.1,84,0.00,,,0.00,WUHU216HW,2013-03-12 00:43:00,
2013-03-11 20:48:00,43.2,39.0,29.81,East,90,0.7,1.1,85,0.00,,,0.00,WUHU216HW,2013-03-12 00:48:00,
2013-03-11 20:53:00,43.2,39.0,29.81,NNW,340,0.7,1.1,85,0.00,,,0.00,WUHU216HW,2013-03-12 00:53:00,
2013-03-11 20:58:00,43.2,39.0,29.81,ESE,113,1.1,1.1,85,0.00,,,0.00,WUHU216HW,2013-03-12 00:58:00,
2013-03-11 21:03:00,43.2,39.0,29.81,East,90,0.7,1.6,85,0.00,,,0.00,WUHU216HW,2013-03-12 01:03:00,
2013-03-11 21:08:00,43.2,39.2,29.81,West,270,0.7,1.6,86,0.00,,,0.00,WUHU216HW,2013-03-12 01:08:00,
2013-03-11 21:13:00,43.2,39.2,29.81,SSE,161,0.6,0.9,86,0.00,,,0.00,WUHU216HW,2013-03-12 01:13:00,
2013-03-11 21:18:00,43.2,39.2,29.81,NNW,343,0.5,1.6,86,0.00,,,0.00,WUHU216HW,2013-03-12 01:18:00,
2013-03-11 21:23:00,43.2,39.0,29.80,North,0,0.4,1.6,85,0.00,,,0.00,WUHU216HW,2013-03-12 01:23:00,
2013-03-11 21:28:00,43.2,39.0,29.80,East,79,0.8,1.3,85,0.00,,,0.00,WUHU216HW,2013-03-12 01:28:00,
2013-03-11 21:33:00,43.0,38.8,29.80,ESE,110,0.8,1.3,85,0.00,,,0.00,WUHU216HW,2013-03-12 01:33:00,
2013-03-11 21:38:00,43.0,39.1,29.80,SW,232,0.5,1.3,86,0.00,,,0.00,WUHU216HW,2013-03-12 01:38:00,
2013-03-11 21:41:00,43.0,39.1,29.80,NNW,340,0.8,1.3,86,0.00,,,0.00,WUHU216HW,2013-03-12 01:41:00,